sensor_id;sensor_type;location;lat;lon;timestamp;temperature;humidity
34147;DHT22;20423;49.448;9.056;2024-01-30T00:01:17;2.00;99.90
34147;DHT22;20423;49.448;9.056;2024-01-30T00:03:42;2.10;99.90
34147;DHT22;20423;49.448;9.056;2024-01-30T00:06:08;2.00;99.90
34147;DHT22;20423;49.448;9.056;2024-01-30T00:08:34;2.00;99.90
34147;DHT22;20423;49.448;9.056;2024-01-30T00:10:59;1.90;99.90
34147;DHT22;20423;49.448;9.056;2024-01-30T00:13:25;1.90;99.90
34147;DHT22;20423;49.448;9.056;2024-01-30T00:15:50;1.80;99.90
34147;DHT22;20423;49.448;9.056;2024-01-30T00:18:16;1.70;99.90
34147;DHT22;20423;49.448;9.056;2024-01-30T00:20:41;1.70;99.90
34147;DHT22;20423;49.448;9.056;2024-01-30T00:23:08;1.70;99.90
34147;DHT22;20423;49.448;9.056;2024-01-30T00:25:34;1.70;99.90
34147;DHT22;20423;49.448;9.056;2024-01-30T00:27:59;1.80;99.90
34147;DHT22;20423;49.448;9.056;2024-01-30T00:30:25;1.70;99.90
34147;DHT22;20423;49.448;9.056;2024-01-30T00:32:50;1.60;99.90
34147;DHT22;20423;49.448;9.056;2024-01-30T00:35:16;1.50;99.90
34147;DHT22;20423;49.448;9.056;2024-01-30T00:37:41;1.40;99.90
34147;DHT22;20423;49.448;9.056;2024-01-30T00:40:07;1.30;99.90
34147;DHT22;20423;49.448;9.056;2024-01-30T00:42:33;1.30;99.90
34147;DHT22;20423;49.448;9.056;2024-01-30T00:44:58;1.20;99.90
34147;DHT22;20423;49.448;9.056;2024-01-30T00:47:24;1.20;99.90
34147;DHT22;20423;49.448;9.056;2024-01-30T00:49:50;1.10;99.90
34147;DHT22;20423;49.448;9.056;2024-01-30T00:52:15;1.10;99.90
34147;DHT22;20423;49.448;9.056;2024-01-30T00:54:41;1.10;99.90
34147;DHT22;20423;49.448;9.056;2024-01-30T00:57:07;1.10;99.90
34147;DHT22;20423;49.448;9.056;2024-01-30T00:59:32;1.10;99.90
34147;DHT22;20423;49.448;9.056;2024-01-30T01:01:58;1.00;99.90
34147;DHT22;20423;49.448;9.056;2024-01-30T01:04:26;0.90;99.90
34147;DHT22;20423;49.448;9.056;2024-01-30T01:06:52;1.00;99.90
34147;DHT22;20423;49.448;9.056;2024-01-30T01:09:17;1.00;99.90
34147;DHT22;20423;49.448;9.056;2024-01-30T01:11:43;0.90;99.90
34147;DHT22;20423;49.448;9.056;2024-01-30T01:14:09;0.90;99.90
34147;DHT22;20423;49.448;9.056;2024-01-30T01:16:34;0.80;99.90
34147;DHT22;20423;49.448;9.056;2024-01-30T01:19:00;0.80;99.90
34147;DHT22;20423;49.448;9.056;2024-01-30T01:21:26;0.80;99.90
34147;DHT22;20423;49.448;9.056;2024-01-30T01:23:51;0.80;99.90
34147;DHT22;20423;49.448;9.056;2024-01-30T01:26:17;0.80;99.90
34147;DHT22;20423;49.448;9.056;2024-01-30T01:28:42;0.70;99.90
34147;DHT22;20423;49.448;9.056;2024-01-30T01:31:08;0.70;99.90
34147;DHT22;20423;49.448;9.056;2024-01-30T01:33:34;0.60;99.90
34147;DHT22;20423;49.448;9.056;2024-01-30T01:36:01;0.60;99.90
34147;DHT22;20423;49.448;9.056;2024-01-30T01:38:29;0.60;99.90
34147;DHT22;20423;49.448;9.056;2024-01-30T01:40:55;0.70;99.90
34147;DHT22;20423;49.448;9.056;2024-01-30T01:43:21;0.70;99.90
34147;DHT22;20423;49.448;9.056;2024-01-30T01:45:46;0.70;99.90
34147;DHT22;20423;49.448;9.056;2024-01-30T01:48:12;0.70;99.90
34147;DHT22;20423;49.448;9.056;2024-01-30T01:50:38;0.70;99.90
34147;DHT22;20423;49.448;9.056;2024-01-30T01:53:04;0.70;99.90
34147;DHT22;20423;49.448;9.056;2024-01-30T01:55:31;0.70;99.90
34147;DHT22;20423;49.448;9.056;2024-01-30T01:58:06;0.70;99.90
34147;DHT22;20423;49.448;9.056;2024-01-30T02:00:34;0.60;99.90
34147;DHT22;20423;49.448;9.056;2024-01-30T02:03:00;0.60;99.90
34147;DHT22;20423;49.448;9.056;2024-01-30T02:05:26;0.60;99.90
34147;DHT22;20423;49.448;9.056;2024-01-30T02:07:52;0.60;99.90
34147;DHT22;20423;49.448;9.056;2024-01-30T02:10:17;0.60;99.90
34147;DHT22;20423;49.448;9.056;2024-01-30T02:12:43;0.60;99.90
34147;DHT22;20423;49.448;9.056;2024-01-30T02:15:15;0.70;99.90
34147;DHT22;20423;49.448;9.056;2024-01-30T02:17:40;0.80;99.90
34147;DHT22;20423;49.448;9.056;2024-01-30T02:20:06;0.80;99.90
34147;DHT22;20423;49.448;9.056;2024-01-30T02:22:32;0.90;99.90
34147;DHT22;20423;49.448;9.056;2024-01-30T02:24:59;0.90;99.90
34147;DHT22;20423;49.448;9.056;2024-01-30T02:27:25;1.00;99.90
34147;DHT22;20423;49.448;9.056;2024-01-30T02:29:50;1.10;99.90
34147;DHT22;20423;49.448;9.056;2024-01-30T02:32:16;1.10;99.90
34147;DHT22;20423;49.448;9.056;2024-01-30T02:34:42;1.00;99.90
34147;DHT22;20423;49.448;9.056;2024-01-30T02:37:08;0.90;99.90
34147;DHT22;20423;49.448;9.056;2024-01-30T02:39:33;0.80;99.90
34147;DHT22;20423;49.448;9.056;2024-01-30T02:41:59;0.70;99.90
34147;DHT22;20423;49.448;9.056;2024-01-30T02:44:25;0.70;99.90
34147;DHT22;20423;49.448;9.056;2024-01-30T02:46:50;0.60;99.90
34147;DHT22;20423;49.448;9.056;2024-01-30T02:49:16;0.70;99.90
34147;DHT22;20423;49.448;9.056;2024-01-30T02:51:42;0.70;99.90
34147;DHT22;20423;49.448;9.056;2024-01-30T02:54:07;0.60;99.90
34147;DHT22;20423;49.448;9.056;2024-01-30T02:56:33;0.50;99.90
34147;DHT22;20423;49.448;9.056;2024-01-30T02:59:17;0.50;99.90
34147;DHT22;20423;49.448;9.056;2024-01-30T03:01:45;0.50;99.90
34147;DHT22;20423;49.448;9.056;2024-01-30T03:04:11;0.50;99.90
34147;DHT22;20423;49.448;9.056;2024-01-30T03:06:37;0.50;99.90
34147;DHT22;20423;49.448;9.056;2024-01-30T03:09:03;0.50;99.90
34147;DHT22;20423;49.448;9.056;2024-01-30T03:11:30;0.50;99.90
34147;DHT22;20423;49.448;9.056;2024-01-30T03:13:56;0.50;99.90
34147;DHT22;20423;49.448;9.056;2024-01-30T03:16:21;0.40;99.90
34147;DHT22;20423;49.448;9.056;2024-01-30T03:18:47;0.50;99.90
34147;DHT22;20423;49.448;9.056;2024-01-30T03:21:13;0.50;99.90
34147;DHT22;20423;49.448;9.056;2024-01-30T03:23:39;0.50;99.90
34147;DHT22;20423;49.448;9.056;2024-01-30T03:26:05;0.50;99.90
34147;DHT22;20423;49.448;9.056;2024-01-30T03:28:32;0.40;99.90
34147;DHT22;20423;49.448;9.056;2024-01-30T03:31:03;0.30;99.90
34147;DHT22;20423;49.448;9.056;2024-01-30T03:33:29;0.20;99.90
34147;DHT22;20423;49.448;9.056;2024-01-30T03:35:55;0.20;99.90
34147;DHT22;20423;49.448;9.056;2024-01-30T03:38:20;0.20;99.90
34147;DHT22;20423;49.448;9.056;2024-01-30T03:40:46;0.20;99.90
34147;DHT22;20423;49.448;9.056;2024-01-30T03:43:11;0.20;99.90
34147;DHT22;20423;49.448;9.056;2024-01-30T03:45:37;0.10;99.90
34147;DHT22;20423;49.448;9.056;2024-01-30T03:48:02;0.20;99.90
34147;DHT22;20423;49.448;9.056;2024-01-30T03:50:28;0.20;99.90
34147;DHT22;20423;49.448;9.056;2024-01-30T03:52:54;0.20;99.90
34147;DHT22;20423;49.448;9.056;2024-01-30T03:55:19;0.20;99.90
34147;DHT22;20423;49.448;9.056;2024-01-30T03:57:45;0.20;99.90
34147;DHT22;20423;49.448;9.056;2024-01-30T04:00:11;0.20;99.90
34147;DHT22;20423;49.448;9.056;2024-01-30T04:02:39;0.20;99.90
34147;DHT22;20423;49.448;9.056;2024-01-30T04:05:05;0.20;99.90
34147;DHT22;20423;49.448;9.056;2024-01-30T04:07:30;0.30;99.90
34147;DHT22;20423;49.448;9.056;2024-01-30T04:09:56;0.30;99.90
34147;DHT22;20423;49.448;9.056;2024-01-30T04:12:21;0.30;99.90
34147;DHT22;20423;49.448;9.056;2024-01-30T04:14:47;0.40;99.90
34147;DHT22;20423;49.448;9.056;2024-01-30T04:17:13;0.40;99.90
34147;DHT22;20423;49.448;9.056;2024-01-30T04:19:38;0.50;99.90
34147;DHT22;20423;49.448;9.056;2024-01-30T04:22:04;0.50;99.90
34147;DHT22;20423;49.448;9.056;2024-01-30T04:24:30;0.60;99.90
34147;DHT22;20423;49.448;9.056;2024-01-30T04:26:55;0.60;99.90
34147;DHT22;20423;49.448;9.056;2024-01-30T04:29:21;0.60;99.90
34147;DHT22;20423;49.448;9.056;2024-01-30T04:31:47;0.60;99.90
34147;DHT22;20423;49.448;9.056;2024-01-30T04:34:13;0.50;99.90
34147;DHT22;20423;49.448;9.056;2024-01-30T04:36:39;0.50;99.90
34147;DHT22;20423;49.448;9.056;2024-01-30T04:39:04;0.50;99.90
34147;DHT22;20423;49.448;9.056;2024-01-30T04:41:30;0.50;99.90
34147;DHT22;20423;49.448;9.056;2024-01-30T04:43:57;0.60;99.90
34147;DHT22;20423;49.448;9.056;2024-01-30T04:46:23;0.70;99.90
34147;DHT22;20423;49.448;9.056;2024-01-30T04:48:48;0.70;99.90
34147;DHT22;20423;49.448;9.056;2024-01-30T04:51:14;0.70;99.90
34147;DHT22;20423;49.448;9.056;2024-01-30T04:53:39;0.80;99.90
34147;DHT22;20423;49.448;9.056;2024-01-30T04:56:05;0.70;99.90
34147;DHT22;20423;49.448;9.056;2024-01-30T04:58:31;0.70;99.90
34147;DHT22;20423;49.448;9.056;2024-01-30T05:00:56;0.70;99.90
34147;DHT22;20423;49.448;9.056;2024-01-30T05:03:22;0.70;99.90
34147;DHT22;20423;49.448;9.056;2024-01-30T05:05:48;0.80;99.90
34147;DHT22;20423;49.448;9.056;2024-01-30T05:08:14;0.90;99.90
34147;DHT22;20423;49.448;9.056;2024-01-30T05:10:40;0.90;99.90
34147;DHT22;20423;49.448;9.056;2024-01-30T05:13:06;0.90;99.90
34147;DHT22;20423;49.448;9.056;2024-01-30T05:15:31;1.00;99.90
34147;DHT22;20423;49.448;9.056;2024-01-30T05:17:57;1.00;99.90
34147;DHT22;20423;49.448;9.056;2024-01-30T05:20:22;1.00;99.90
34147;DHT22;20423;49.448;9.056;2024-01-30T05:22:48;1.10;99.90
34147;DHT22;20423;49.448;9.056;2024-01-30T05:25:13;1.10;99.90
34147;DHT22;20423;49.448;9.056;2024-01-30T05:27:39;1.10;99.90
34147;DHT22;20423;49.448;9.056;2024-01-30T05:30:08;1.10;99.90
34147;DHT22;20423;49.448;9.056;2024-01-30T05:32:34;1.10;99.90
34147;DHT22;20423;49.448;9.056;2024-01-30T05:34:59;1.10;99.90
34147;DHT22;20423;49.448;9.056;2024-01-30T05:37:25;1.10;99.90
34147;DHT22;20423;49.448;9.056;2024-01-30T05:39:50;1.00;99.90
34147;DHT22;20423;49.448;9.056;2024-01-30T05:42:16;1.00;99.90
34147;DHT22;20423;49.448;9.056;2024-01-30T05:44:42;1.00;99.90
34147;DHT22;20423;49.448;9.056;2024-01-30T05:47:08;1.00;99.90
34147;DHT22;20423;49.448;9.056;2024-01-30T05:49:33;1.00;99.90
34147;DHT22;20423;49.448;9.056;2024-01-30T05:52:01;1.00;99.90
34147;DHT22;20423;49.448;9.056;2024-01-30T05:54:27;1.00;99.90
34147;DHT22;20423;49.448;9.056;2024-01-30T05:56:53;0.90;99.90
34147;DHT22;20423;49.448;9.056;2024-01-30T05:59:18;0.90;99.90
34147;DHT22;20423;49.448;9.056;2024-01-30T06:01:47;0.90;99.90
34147;DHT22;20423;49.448;9.056;2024-01-30T06:04:13;0.90;99.90
34147;DHT22;20423;49.448;9.056;2024-01-30T06:06:39;0.90;99.90
34147;DHT22;20423;49.448;9.056;2024-01-30T06:09:05;0.90;99.90
34147;DHT22;20423;49.448;9.056;2024-01-30T06:11:30;0.90;99.90
34147;DHT22;20423;49.448;9.056;2024-01-30T06:13:56;0.90;99.90
34147;DHT22;20423;49.448;9.056;2024-01-30T06:16:22;0.90;99.90
34147;DHT22;20423;49.448;9.056;2024-01-30T06:18:48;0.90;99.90
34147;DHT22;20423;49.448;9.056;2024-01-30T06:21:13;1.00;99.90
34147;DHT22;20423;49.448;9.056;2024-01-30T06:23:39;1.10;99.90
34147;DHT22;20423;49.448;9.056;2024-01-30T06:26:06;1.20;99.90
34147;DHT22;20423;49.448;9.056;2024-01-30T06:28:31;1.20;99.90
34147;DHT22;20423;49.448;9.056;2024-01-30T06:30:57;1.20;99.90
34147;DHT22;20423;49.448;9.056;2024-01-30T06:33:22;1.20;99.90
34147;DHT22;20423;49.448;9.056;2024-01-30T06:35:48;1.20;99.90
34147;DHT22;20423;49.448;9.056;2024-01-30T06:38:14;1.20;99.90
34147;DHT22;20423;49.448;9.056;2024-01-30T06:40:41;1.10;99.90
34147;DHT22;20423;49.448;9.056;2024-01-30T06:43:07;1.10;99.90
34147;DHT22;20423;49.448;9.056;2024-01-30T06:45:33;1.10;99.90
34147;DHT22;20423;49.448;9.056;2024-01-30T06:48:00;1.10;99.90
34147;DHT22;20423;49.448;9.056;2024-01-30T06:50:25;1.10;99.90
34147;DHT22;20423;49.448;9.056;2024-01-30T06:52:51;1.10;99.90
34147;DHT22;20423;49.448;9.056;2024-01-30T06:55:18;1.10;99.90
34147;DHT22;20423;49.448;9.056;2024-01-30T06:57:43;1.00;99.90
34147;DHT22;20423;49.448;9.056;2024-01-30T07:00:09;1.10;99.90
34147;DHT22;20423;49.448;9.056;2024-01-30T07:02:44;1.00;99.90
34147;DHT22;20423;49.448;9.056;2024-01-30T07:05:10;1.10;99.90
34147;DHT22;20423;49.448;9.056;2024-01-30T07:07:35;1.00;99.90
34147;DHT22;20423;49.448;9.056;2024-01-30T07:10:01;1.00;99.90
34147;DHT22;20423;49.448;9.056;2024-01-30T07:12:26;1.00;99.90
34147;DHT22;20423;49.448;9.056;2024-01-30T07:14:52;1.00;99.90
34147;DHT22;20423;49.448;9.056;2024-01-30T07:17:18;1.00;99.90
34147;DHT22;20423;49.448;9.056;2024-01-30T07:19:43;1.00;99.90
34147;DHT22;20423;49.448;9.056;2024-01-30T07:22:09;1.00;99.90
34147;DHT22;20423;49.448;9.056;2024-01-30T07:24:41;1.10;99.90
34147;DHT22;20423;49.448;9.056;2024-01-30T07:27:07;1.20;99.90
34147;DHT22;20423;49.448;9.056;2024-01-30T07:29:33;1.20;99.90
34147;DHT22;20423;49.448;9.056;2024-01-30T07:31:59;1.30;99.90
34147;DHT22;20423;49.448;9.056;2024-01-30T07:34:24;1.40;99.90
34147;DHT22;20423;49.448;9.056;2024-01-30T07:36:50;1.50;99.90
34147;DHT22;20423;49.448;9.056;2024-01-30T07:39:15;1.60;99.90
34147;DHT22;20423;49.448;9.056;2024-01-30T07:41:41;1.70;99.90
34147;DHT22;20423;49.448;9.056;2024-01-30T07:44:07;1.70;99.90
34147;DHT22;20423;49.448;9.056;2024-01-30T07:46:56;1.80;99.90
34147;DHT22;20423;49.448;9.056;2024-01-30T07:49:22;2.00;99.90
34147;DHT22;20423;49.448;9.056;2024-01-30T07:51:48;2.00;99.90
34147;DHT22;20423;49.448;9.056;2024-01-30T07:54:13;2.10;99.90
34147;DHT22;20423;49.448;9.056;2024-01-30T07:56:39;2.20;99.90
34147;DHT22;20423;49.448;9.056;2024-01-30T07:59:04;2.20;99.90
34147;DHT22;20423;49.448;9.056;2024-01-30T08:01:30;2.30;99.90
34147;DHT22;20423;49.448;9.056;2024-01-30T08:03:56;2.40;99.90
34147;DHT22;20423;49.448;9.056;2024-01-30T08:06:21;2.50;99.90
34147;DHT22;20423;49.448;9.056;2024-01-30T08:08:47;2.60;99.90
34147;DHT22;20423;49.448;9.056;2024-01-30T08:11:13;2.70;99.90
34147;DHT22;20423;49.448;9.056;2024-01-30T08:13:39;2.80;99.90
34147;DHT22;20423;49.448;9.056;2024-01-30T08:16:04;2.90;99.90
34147;DHT22;20423;49.448;9.056;2024-01-30T08:18:30;3.00;99.90
34147;DHT22;20423;49.448;9.056;2024-01-30T08:20:56;3.10;99.90
34147;DHT22;20423;49.448;9.056;2024-01-30T08:23:21;3.20;99.90
34147;DHT22;20423;49.448;9.056;2024-01-30T08:25:47;3.30;99.90
34147;DHT22;20423;49.448;9.056;2024-01-30T08:28:13;3.50;99.90
34147;DHT22;20423;49.448;9.056;2024-01-30T08:30:38;3.60;99.90
34147;DHT22;20423;49.448;9.056;2024-01-30T08:33:05;3.80;99.90
34147;DHT22;20423;49.448;9.056;2024-01-30T08:35:30;3.90;99.90
34147;DHT22;20423;49.448;9.056;2024-01-30T08:37:59;4.10;99.90
34147;DHT22;20423;49.448;9.056;2024-01-30T08:40:24;4.20;99.90
34147;DHT22;20423;49.448;9.056;2024-01-30T08:42:50;4.30;99.90
34147;DHT22;20423;49.448;9.056;2024-01-30T08:45:16;4.50;99.90
34147;DHT22;20423;49.448;9.056;2024-01-30T08:47:42;4.60;99.90
34147;DHT22;20423;49.448;9.056;2024-01-30T08:50:08;4.70;99.90
34147;DHT22;20423;49.448;9.056;2024-01-30T08:52:33;4.90;99.90
34147;DHT22;20423;49.448;9.056;2024-01-30T08:54:59;5.00;99.90
34147;DHT22;20423;49.448;9.056;2024-01-30T08:57:25;5.10;99.90
34147;DHT22;20423;49.448;9.056;2024-01-30T08:59:54;5.20;99.90
34147;DHT22;20423;49.448;9.056;2024-01-30T09:02:19;5.30;99.90
34147;DHT22;20423;49.448;9.056;2024-01-30T09:04:45;5.40;99.90
34147;DHT22;20423;49.448;9.056;2024-01-30T09:07:11;5.50;99.90
34147;DHT22;20423;49.448;9.056;2024-01-30T09:09:41;5.50;99.90
34147;DHT22;20423;49.448;9.056;2024-01-30T09:12:07;5.60;99.90
34147;DHT22;20423;49.448;9.056;2024-01-30T09:14:35;5.70;99.90
34147;DHT22;20423;49.448;9.056;2024-01-30T09:17:01;5.80;99.90
34147;DHT22;20423;49.448;9.056;2024-01-30T09:19:28;6.00;99.90
34147;DHT22;20423;49.448;9.056;2024-01-30T09:21:54;6.20;99.90
34147;DHT22;20423;49.448;9.056;2024-01-30T09:24:19;6.30;99.90
34147;DHT22;20423;49.448;9.056;2024-01-30T09:26:45;6.30;99.90
34147;DHT22;20423;49.448;9.056;2024-01-30T09:29:10;6.50;99.90
34147;DHT22;20423;49.448;9.056;2024-01-30T09:31:36;6.60;99.90
34147;DHT22;20423;49.448;9.056;2024-01-30T09:34:02;6.70;99.90
34147;DHT22;20423;49.448;9.056;2024-01-30T09:36:27;6.90;99.90
34147;DHT22;20423;49.448;9.056;2024-01-30T09:38:53;6.90;99.90
34147;DHT22;20423;49.448;9.056;2024-01-30T09:44:06;7.30;99.90
34147;DHT22;20423;49.448;9.056;2024-01-30T09:46:33;7.40;99.90
34147;DHT22;20423;49.448;9.056;2024-01-30T09:49:00;7.50;99.90
34147;DHT22;20423;49.448;9.056;2024-01-30T09:51:26;7.50;99.90
34147;DHT22;20423;49.448;9.056;2024-01-30T09:53:52;7.40;99.90
34147;DHT22;20423;49.448;9.056;2024-01-30T09:56:18;7.30;99.90
34147;DHT22;20423;49.448;9.056;2024-01-30T09:58:44;7.30;99.90
34147;DHT22;20423;49.448;9.056;2024-01-30T10:01:10;7.30;99.90
34147;DHT22;20423;49.448;9.056;2024-01-30T10:03:36;7.30;99.90
34147;DHT22;20423;49.448;9.056;2024-01-30T10:06:01;7.30;99.90
34147;DHT22;20423;49.448;9.056;2024-01-30T10:08:43;7.30;99.90
34147;DHT22;20423;49.448;9.056;2024-01-30T10:11:08;7.40;99.90
34147;DHT22;20423;49.448;9.056;2024-01-30T10:13:34;7.50;99.90
34147;DHT22;20423;49.448;9.056;2024-01-30T10:16:00;7.60;99.90
34147;DHT22;20423;49.448;9.056;2024-01-30T10:18:27;7.80;99.90
34147;DHT22;20423;49.448;9.056;2024-01-30T10:20:53;7.80;99.90
34147;DHT22;20423;49.448;9.056;2024-01-30T10:23:19;8.00;99.90
34147;DHT22;20423;49.448;9.056;2024-01-30T10:25:45;8.10;99.90
34147;DHT22;20423;49.448;9.056;2024-01-30T10:28:11;8.10;99.90
34147;DHT22;20423;49.448;9.056;2024-01-30T10:30:36;8.10;99.90
34147;DHT22;20423;49.448;9.056;2024-01-30T10:33:02;8.10;99.90
34147;DHT22;20423;49.448;9.056;2024-01-30T10:35:28;8.10;99.90
34147;DHT22;20423;49.448;9.056;2024-01-30T10:41:25;8.20;99.90
34147;DHT22;20423;49.448;9.056;2024-01-30T10:43:55;8.00;99.90
34147;DHT22;20423;49.448;9.056;2024-01-30T10:46:24;8.00;99.90
34147;DHT22;20423;49.448;9.056;2024-01-30T10:48:56;8.00;99.90
34147;DHT22;20423;49.448;9.056;2024-01-30T10:51:23;8.00;99.90
34147;DHT22;20423;49.448;9.056;2024-01-30T10:53:49;8.00;99.90
34147;DHT22;20423;49.448;9.056;2024-01-30T10:56:15;7.90;99.90
34147;DHT22;20423;49.448;9.056;2024-01-30T10:58:41;7.90;99.90
34147;DHT22;20423;49.448;9.056;2024-01-30T11:01:07;7.80;99.90
34147;DHT22;20423;49.448;9.056;2024-01-30T11:03:33;7.80;99.90
34147;DHT22;20423;49.448;9.056;2024-01-30T11:06:01;7.80;99.90
34147;DHT22;20423;49.448;9.056;2024-01-30T11:08:27;7.80;99.90
34147;DHT22;20423;49.448;9.056;2024-01-30T11:10:58;7.80;99.90
34147;DHT22;20423;49.448;9.056;2024-01-30T11:13:27;7.80;99.90
34147;DHT22;20423;49.448;9.056;2024-01-30T11:15:54;7.90;99.90
34147;DHT22;20423;49.448;9.056;2024-01-30T11:18:23;8.00;99.90
34147;DHT22;20423;49.448;9.056;2024-01-30T11:20:49;8.00;99.90
34147;DHT22;20423;49.448;9.056;2024-01-30T11:23:15;7.90;99.90
34147;DHT22;20423;49.448;9.056;2024-01-30T11:25:43;8.10;99.90
34147;DHT22;20423;49.448;9.056;2024-01-30T11:28:12;8.10;99.90
34147;DHT22;20423;49.448;9.056;2024-01-30T11:30:38;8.20;99.90
34147;DHT22;20423;49.448;9.056;2024-01-30T11:33:05;8.20;99.90
34147;DHT22;20423;49.448;9.056;2024-01-30T11:35:34;8.10;99.90
34147;DHT22;20423;49.448;9.056;2024-01-30T11:38:01;8.10;99.90
34147;DHT22;20423;49.448;9.056;2024-01-30T11:40:27;8.10;99.90
34147;DHT22;20423;49.448;9.056;2024-01-30T11:42:54;8.20;99.90
34147;DHT22;20423;49.448;9.056;2024-01-30T11:45:20;8.10;99.90
34147;DHT22;20423;49.448;9.056;2024-01-30T11:47:45;8.10;99.90
34147;DHT22;20423;49.448;9.056;2024-01-30T11:50:11;8.10;99.90
34147;DHT22;20423;49.448;9.056;2024-01-30T11:52:37;8.10;99.90
34147;DHT22;20423;49.448;9.056;2024-01-30T11:55:02;8.10;99.90
34147;DHT22;20423;49.448;9.056;2024-01-30T11:57:29;8.10;99.90
34147;DHT22;20423;49.448;9.056;2024-01-30T11:59:54;8.10;99.90
34147;DHT22;20423;49.448;9.056;2024-01-30T12:02:20;8.20;99.90
34147;DHT22;20423;49.448;9.056;2024-01-30T12:04:46;8.20;99.90
34147;DHT22;20423;49.448;9.056;2024-01-30T12:07:11;8.20;99.90
34147;DHT22;20423;49.448;9.056;2024-01-30T12:09:38;8.10;99.90
34147;DHT22;20423;49.448;9.056;2024-01-30T12:12:04;8.10;99.90
34147;DHT22;20423;49.448;9.056;2024-01-30T12:14:30;8.20;99.90
34147;DHT22;20423;49.448;9.056;2024-01-30T12:16:56;8.20;99.90
34147;DHT22;20423;49.448;9.056;2024-01-30T12:19:23;8.20;99.90
34147;DHT22;20423;49.448;9.056;2024-01-30T12:21:53;8.20;99.90
34147;DHT22;20423;49.448;9.056;2024-01-30T12:24:19;8.20;99.90
34147;DHT22;20423;49.448;9.056;2024-01-30T12:26:44;8.20;99.90
34147;DHT22;20423;49.448;9.056;2024-01-30T12:29:10;8.20;99.90
34147;DHT22;20423;49.448;9.056;2024-01-30T12:31:36;8.10;99.90
34147;DHT22;20423;49.448;9.056;2024-01-30T12:34:01;8.10;99.90
34147;DHT22;20423;49.448;9.056;2024-01-30T12:36:28;8.10;99.90
34147;DHT22;20423;49.448;9.056;2024-01-30T12:38:54;8.10;99.90
34147;DHT22;20423;49.448;9.056;2024-01-30T12:41:19;8.20;99.90
34147;DHT22;20423;49.448;9.056;2024-01-30T12:43:45;8.40;99.90
34147;DHT22;20423;49.448;9.056;2024-01-30T12:46:13;8.40;99.90
34147;DHT22;20423;49.448;9.056;2024-01-30T12:48:38;8.50;99.90
34147;DHT22;20423;49.448;9.056;2024-01-30T12:51:04;8.50;99.90
34147;DHT22;20423;49.448;9.056;2024-01-30T12:53:29;8.50;99.90
34147;DHT22;20423;49.448;9.056;2024-01-30T12:55:55;8.50;99.90
34147;DHT22;20423;49.448;9.056;2024-01-30T12:58:21;8.40;99.90
34147;DHT22;20423;49.448;9.056;2024-01-30T13:00:46;8.40;99.90
34147;DHT22;20423;49.448;9.056;2024-01-30T13:03:12;8.40;99.90
34147;DHT22;20423;49.448;9.056;2024-01-30T13:05:38;8.30;99.90
34147;DHT22;20423;49.448;9.056;2024-01-30T13:08:04;8.30;99.90
34147;DHT22;20423;49.448;9.056;2024-01-30T13:10:30;8.20;99.90
34147;DHT22;20423;49.448;9.056;2024-01-30T13:12:55;8.20;99.90
34147;DHT22;20423;49.448;9.056;2024-01-30T13:15:21;8.10;99.90
34147;DHT22;20423;49.448;9.056;2024-01-30T13:17:48;8.10;99.90
34147;DHT22;20423;49.448;9.056;2024-01-30T13:20:14;8.20;99.90
34147;DHT22;20423;49.448;9.056;2024-01-30T13:22:44;8.10;99.90
34147;DHT22;20423;49.448;9.056;2024-01-30T13:25:10;8.10;99.90
34147;DHT22;20423;49.448;9.056;2024-01-30T13:27:37;8.10;99.90
34147;DHT22;20423;49.448;9.056;2024-01-30T13:30:03;8.10;99.90
34147;DHT22;20423;49.448;9.056;2024-01-30T13:32:29;8.20;99.90
34147;DHT22;20423;49.448;9.056;2024-01-30T13:34:54;8.30;99.90
34147;DHT22;20423;49.448;9.056;2024-01-30T13:37:21;8.40;99.90
34147;DHT22;20423;49.448;9.056;2024-01-30T13:39:47;8.30;99.90
34147;DHT22;20423;49.448;9.056;2024-01-30T13:42:13;8.30;99.90
34147;DHT22;20423;49.448;9.056;2024-01-30T13:44:38;8.30;99.90
34147;DHT22;20423;49.448;9.056;2024-01-30T13:47:04;8.20;99.90
34147;DHT22;20423;49.448;9.056;2024-01-30T13:49:30;8.30;99.90
34147;DHT22;20423;49.448;9.056;2024-01-30T13:51:55;8.20;99.90
34147;DHT22;20423;49.448;9.056;2024-01-30T13:54:21;8.20;99.90
34147;DHT22;20423;49.448;9.056;2024-01-30T13:56:46;8.10;99.90
34147;DHT22;20423;49.448;9.056;2024-01-30T13:59:14;8.10;99.90
34147;DHT22;20423;49.448;9.056;2024-01-30T14:01:39;8.10;99.90
34147;DHT22;20423;49.448;9.056;2024-01-30T14:04:05;8.10;99.90
34147;DHT22;20423;49.448;9.056;2024-01-30T14:06:31;8.10;99.90
34147;DHT22;20423;49.448;9.056;2024-01-30T14:08:56;8.10;99.90
34147;DHT22;20423;49.448;9.056;2024-01-30T14:11:23;8.10;99.90
34147;DHT22;20423;49.448;9.056;2024-01-30T14:13:50;8.00;99.90
34147;DHT22;20423;49.448;9.056;2024-01-30T14:16:22;8.10;99.90
34147;DHT22;20423;49.448;9.056;2024-01-30T14:18:47;8.00;99.90
34147;DHT22;20423;49.448;9.056;2024-01-30T14:21:13;8.00;99.90
34147;DHT22;20423;49.448;9.056;2024-01-30T14:23:39;7.90;99.90
34147;DHT22;20423;49.448;9.056;2024-01-30T14:28:55;7.70;99.90
34147;DHT22;20423;49.448;9.056;2024-01-30T14:31:21;7.60;99.90
34147;DHT22;20423;49.448;9.056;2024-01-30T14:33:47;7.70;99.90
34147;DHT22;20423;49.448;9.056;2024-01-30T14:36:13;7.70;99.90
34147;DHT22;20423;49.448;9.056;2024-01-30T14:38:42;7.70;99.90
34147;DHT22;20423;49.448;9.056;2024-01-30T14:41:08;7.60;99.90
34147;DHT22;20423;49.448;9.056;2024-01-30T14:43:42;7.60;99.90
34147;DHT22;20423;49.448;9.056;2024-01-30T14:46:08;7.60;99.90
34147;DHT22;20423;49.448;9.056;2024-01-30T14:48:34;7.60;99.90
34147;DHT22;20423;49.448;9.056;2024-01-30T14:50:59;7.60;99.90
34147;DHT22;20423;49.448;9.056;2024-01-30T14:53:25;7.60;99.90
34147;DHT22;20423;49.448;9.056;2024-01-30T14:55:51;7.60;99.90
34147;DHT22;20423;49.448;9.056;2024-01-30T14:58:16;7.60;99.90
34147;DHT22;20423;49.448;9.056;2024-01-30T15:00:42;7.60;99.90
34147;DHT22;20423;49.448;9.056;2024-01-30T15:03:08;7.60;99.90
34147;DHT22;20423;49.448;9.056;2024-01-30T15:05:34;7.50;99.90
34147;DHT22;20423;49.448;9.056;2024-01-30T15:07:59;7.50;99.90
34147;DHT22;20423;49.448;9.056;2024-01-30T15:10:25;7.50;99.90
34147;DHT22;20423;49.448;9.056;2024-01-30T15:12:50;7.40;99.90
34147;DHT22;20423;49.448;9.056;2024-01-30T15:15:16;7.40;99.90
34147;DHT22;20423;49.448;9.056;2024-01-30T15:17:41;7.30;99.90
34147;DHT22;20423;49.448;9.056;2024-01-30T15:20:07;7.30;99.90
34147;DHT22;20423;49.448;9.056;2024-01-30T15:22:33;7.30;99.90
34147;DHT22;20423;49.448;9.056;2024-01-30T15:24:59;7.30;99.90
34147;DHT22;20423;49.448;9.056;2024-01-30T15:27:25;7.30;99.90
34147;DHT22;20423;49.448;9.056;2024-01-30T15:29:50;7.20;99.90
34147;DHT22;20423;49.448;9.056;2024-01-30T15:32:16;7.20;99.90
34147;DHT22;20423;49.448;9.056;2024-01-30T15:34:42;7.20;99.90
34147;DHT22;20423;49.448;9.056;2024-01-30T15:37:08;7.20;99.90
34147;DHT22;20423;49.448;9.056;2024-01-30T15:39:33;7.10;99.90
34147;DHT22;20423;49.448;9.056;2024-01-30T15:41:59;7.20;99.90
34147;DHT22;20423;49.448;9.056;2024-01-30T15:44:24;7.00;99.90
34147;DHT22;20423;49.448;9.056;2024-01-30T15:47:08;7.00;99.90